createdAt,value
2023-05-10T00:00:10.222Z,99.90
2023-05-10T00:02:55.549Z,99.90
2023-05-10T00:05:41.577Z,99.90
2023-05-10T00:08:27.151Z,99.90
2023-05-10T00:11:12.742Z,99.90
2023-05-10T00:13:58.110Z,99.90
2023-05-10T00:16:43.630Z,99.90
2023-05-10T00:19:29.142Z,99.90
2023-05-10T00:22:14.435Z,99.90
2023-05-10T00:25:00.393Z,99.90
2023-05-10T00:27:46.047Z,99.90
2023-05-10T00:30:31.872Z,99.90
2023-05-10T00:33:17.470Z,99.90
2023-05-10T00:36:02.913Z,99.90
2023-05-10T00:38:48.153Z,99.90
2023-05-10T00:41:33.964Z,99.90
2023-05-10T00:44:19.591Z,99.90
2023-05-10T00:47:05.357Z,99.90
2023-05-10T00:49:51.566Z,97.60
2023-05-10T00:52:37.326Z,94.30
2023-05-10T00:55:22.904Z,95.10
2023-05-10T00:58:08.730Z,95.90
2023-05-10T01:00:56.063Z,97.10
2023-05-10T01:03:42.604Z,96.70
2023-05-10T01:06:28.794Z,97.00
2023-05-10T01:09:14.311Z,95.80
2023-05-10T01:12:02.630Z,93.80
2023-05-10T01:14:49.040Z,94.90
2023-05-10T01:17:36.031Z,94.30
2023-05-10T01:20:21.578Z,94.60
2023-05-10T01:23:53.363Z,91.10
2023-05-10T01:26:53.991Z,90.60
2023-05-10T01:30:25.206Z,93.00
2023-05-10T01:33:19.750Z,93.40
2023-05-10T01:36:13.828Z,93.10
2023-05-10T01:39:11.245Z,92.90
2023-05-10T01:42:17.526Z,92.60
2023-05-10T01:45:18.294Z,94.60
2023-05-10T01:48:08.311Z,94.40
2023-05-10T01:50:55.831Z,91.70
2023-05-10T01:53:42.636Z,92.20
2023-05-10T01:56:30.613Z,93.50
2023-05-10T01:59:19.361Z,95.10
2023-05-10T02:02:06.549Z,94.50
2023-05-10T02:04:53.242Z,93.10
2023-05-10T02:07:38.860Z,92.60
2023-05-10T02:10:24.340Z,94.80
2023-05-10T02:13:11.185Z,92.10
2023-05-10T02:15:58.090Z,94.00
2023-05-10T02:18:44.381Z,92.20
2023-05-10T02:21:31.717Z,93.20
2023-05-10T02:24:17.928Z,93.30
2023-05-10T02:27:05.367Z,93.50
2023-05-10T02:29:52.443Z,93.00
2023-05-10T02:32:38.639Z,92.50
2023-05-10T02:35:24.966Z,90.80
2023-05-10T02:38:11.441Z,90.50
2023-05-10T02:40:57.687Z,91.20
2023-05-10T02:43:44.314Z,91.00
2023-05-10T02:46:29.813Z,89.60
2023-05-10T02:49:16.618Z,91.40
2023-05-10T02:52:06.781Z,92.90
2023-05-10T02:54:56.277Z,92.80
2023-05-10T02:57:52.760Z,92.90
2023-05-10T03:00:38.069Z,93.80
2023-05-10T03:03:23.436Z,91.30
2023-05-10T03:06:09.119Z,92.00
2023-05-10T03:08:54.747Z,92.40
2023-05-10T03:12:03.186Z,93.30
2023-05-10T03:14:57.428Z,89.00
2023-05-10T03:18:13.851Z,87.30
2023-05-10T03:21:03.805Z,89.50
2023-05-10T03:23:58.929Z,90.00
2023-05-10T03:26:46.636Z,92.60
2023-05-10T03:29:32.977Z,95.70
2023-05-10T03:32:18.490Z,94.20
2023-05-10T03:35:14.337Z,94.70
2023-05-10T03:38:00.024Z,93.80
2023-05-10T03:40:45.739Z,93.50
2023-05-10T03:43:31.096Z,91.10
2023-05-10T03:46:16.666Z,92.60
2023-05-10T03:49:02.082Z,91.80
2023-05-10T03:51:47.356Z,91.20
2023-05-10T03:54:33.294Z,92.30
2023-05-10T03:57:18.836Z,92.90
2023-05-10T04:00:05.012Z,93.00
2023-05-10T04:02:50.582Z,92.50
2023-05-10T04:05:36.781Z,91.40
2023-05-10T04:08:22.465Z,91.20
2023-05-10T04:11:09.291Z,92.60
2023-05-10T04:13:54.631Z,92.90
2023-05-10T04:16:40.406Z,92.60
2023-05-10T04:19:25.564Z,93.00
2023-05-10T04:22:11.237Z,93.30
2023-05-10T04:24:56.859Z,93.20
2023-05-10T04:27:42.708Z,92.10
2023-05-10T04:30:30.239Z,93.30
2023-05-10T04:33:16.259Z,92.90
2023-05-10T04:36:01.882Z,93.10
2023-05-10T04:38:47.758Z,92.80
2023-05-10T04:41:33.289Z,91.90
2023-05-10T04:44:18.514Z,90.80
2023-05-10T04:47:04.140Z,91.60
2023-05-10T04:49:49.520Z,91.80
2023-05-10T04:52:35.361Z,91.80
2023-05-10T04:55:20.692Z,92.70
2023-05-10T04:58:06.530Z,92.30
2023-05-10T05:00:51.855Z,93.20
2023-05-10T05:03:37.694Z,93.70
2023-05-10T05:06:23.564Z,93.80
2023-05-10T05:09:08.862Z,95.30
2023-05-10T05:11:54.593Z,96.00
2023-05-10T05:14:39.834Z,96.70
2023-05-10T05:17:25.475Z,98.90
2023-05-10T05:20:11.857Z,96.90
2023-05-10T05:22:57.363Z,98.80
2023-05-10T05:25:43.229Z,98.50
2023-05-10T05:28:33.839Z,99.90
2023-05-10T05:31:19.114Z,99.90
2023-05-10T05:34:04.880Z,99.90
2023-05-10T05:36:50.262Z,99.90
2023-05-10T05:39:37.384Z,99.90
2023-05-10T05:42:22.789Z,99.90
2023-05-10T05:45:09.922Z,99.90
2023-05-10T05:47:55.513Z,99.90
2023-05-10T05:50:41.209Z,99.90
2023-05-10T05:53:26.687Z,99.90
2023-05-10T05:56:12.010Z,99.90
2023-05-10T05:58:57.333Z,99.90
2023-05-10T06:01:42.557Z,99.90
2023-05-10T06:04:28.262Z,99.90
2023-05-10T06:07:13.929Z,99.90
2023-05-10T06:09:59.681Z,99.90
2023-05-10T06:12:45.062Z,99.90
2023-05-10T06:15:30.545Z,99.90
2023-05-10T06:18:16.235Z,99.90
2023-05-10T06:21:01.832Z,99.90
2023-05-10T06:23:47.364Z,99.90
2023-05-10T06:26:32.655Z,99.90
2023-05-10T06:29:18.626Z,99.90
2023-05-10T06:32:04.480Z,99.90
2023-05-10T06:34:49.949Z,98.10
2023-05-10T06:37:35.677Z,99.90
2023-05-10T06:40:21.440Z,98.40
2023-05-10T06:43:06.866Z,96.40
2023-05-10T06:45:52.906Z,91.20
2023-05-10T06:48:38.591Z,92.00
2023-05-10T06:51:24.186Z,93.70
2023-05-10T06:54:09.776Z,93.20
2023-05-10T06:56:55.182Z,90.00
2023-05-10T06:59:40.777Z,88.80
2023-05-10T07:02:26.655Z,84.70
2023-05-10T07:05:13.313Z,81.40
2023-05-10T07:07:59.020Z,86.60
2023-05-10T07:10:44.434Z,84.90
2023-05-10T07:13:31.278Z,83.70
2023-05-10T07:16:16.693Z,83.20
2023-05-10T07:19:03.312Z,83.70
2023-05-10T07:21:48.969Z,79.70
2023-05-10T07:24:34.495Z,81.40
2023-05-10T07:27:19.849Z,79.10
2023-05-10T07:30:05.648Z,81.00
2023-05-10T07:32:51.210Z,81.70
2023-05-10T07:35:37.188Z,82.10
2023-05-10T07:38:22.736Z,80.90
2023-05-10T07:41:07.993Z,83.10
2023-05-10T07:43:53.457Z,85.60
2023-05-10T07:46:39.168Z,83.80
2023-05-10T07:49:27.381Z,83.90
2023-05-10T07:52:12.911Z,82.00
2023-05-10T07:54:58.601Z,78.60
2023-05-10T07:57:44.433Z,83.70
2023-05-10T08:00:30.019Z,83.30
2023-05-10T08:03:15.908Z,79.60
2023-05-10T08:06:01.566Z,77.00
2023-05-10T08:08:50.472Z,74.40
2023-05-10T08:11:36.542Z,76.20
2023-05-10T08:14:22.201Z,78.80
2023-05-10T08:17:07.844Z,79.50
2023-05-10T08:19:53.322Z,79.30
2023-05-10T08:22:38.859Z,79.10
2023-05-10T08:25:24.393Z,80.70
2023-05-10T08:28:11.278Z,82.20
2023-05-10T08:30:57.377Z,83.00
2023-05-10T08:33:44.438Z,83.60
2023-05-10T08:36:30.129Z,85.50
2023-05-10T08:39:26.716Z,84.70
2023-05-10T08:42:21.384Z,84.70
2023-05-10T08:45:11.426Z,82.10
2023-05-10T08:47:56.925Z,77.40
2023-05-10T08:50:43.979Z,77.00
2023-05-10T08:53:32.885Z,71.70
2023-05-10T08:56:18.989Z,71.70
2023-05-10T08:59:04.422Z,72.20
2023-05-10T09:01:51.504Z,70.70
2023-05-10T09:04:36.946Z,71.80
2023-05-10T09:07:22.482Z,71.80
2023-05-10T09:10:09.575Z,69.50
2023-05-10T09:12:59.517Z,68.20
2023-05-10T09:15:52.817Z,69.50
2023-05-10T09:18:41.485Z,66.80
2023-05-10T09:21:27.737Z,72.00
2023-05-10T09:24:13.476Z,75.70
2023-05-10T09:27:01.636Z,77.30
2023-05-10T09:29:54.541Z,75.20
2023-05-10T09:32:48.007Z,73.10
2023-05-10T09:35:34.715Z,63.40
2023-05-10T09:38:20.150Z,66.20
2023-05-10T09:41:05.636Z,65.80
2023-05-10T09:43:56.085Z,68.70
2023-05-10T09:46:41.767Z,66.60
2023-05-10T09:49:27.442Z,66.70
2023-05-10T09:52:12.702Z,66.20
2023-05-10T09:54:58.721Z,66.60
2023-05-10T09:57:44.139Z,66.10
2023-05-10T10:00:35.270Z,66.20
2023-05-10T10:03:22.147Z,66.20
2023-05-10T10:06:18.795Z,67.50
2023-05-10T10:09:09.030Z,68.50
2023-05-10T10:11:55.483Z,64.70
2023-05-10T10:14:41.501Z,67.40
2023-05-10T10:17:29.320Z,66.00
2023-05-10T10:20:16.513Z,69.40
2023-05-10T10:23:03.337Z,72.80
2023-05-10T10:25:50.012Z,76.00
2023-05-10T10:29:13.513Z,75.60
2023-05-10T10:32:11.980Z,73.10
2023-05-10T10:34:58.070Z,69.90
2023-05-10T10:37:48.238Z,72.00
2023-05-10T10:40:35.335Z,70.30
2023-05-10T10:43:28.914Z,72.40
2023-05-10T10:46:18.834Z,59.00
2023-05-10T10:49:11.580Z,60.70
2023-05-10T10:52:30.991Z,59.30
2023-05-10T10:55:19.945Z,53.00
2023-05-10T10:58:06.750Z,58.10
2023-05-10T11:01:14.475Z,56.00
2023-05-10T11:03:59.843Z,55.80
2023-05-10T11:06:45.258Z,58.00
2023-05-10T11:09:41.085Z,57.00
2023-05-10T11:12:26.434Z,60.00
2023-05-10T11:15:12.324Z,55.80
2023-05-10T11:17:57.656Z,57.40
2023-05-10T11:20:43.289Z,57.30
2023-05-10T11:23:50.202Z,56.50
2023-05-10T11:26:36.884Z,54.00
2023-05-10T11:29:22.478Z,53.70
2023-05-10T11:32:09.233Z,57.60
2023-05-10T11:34:54.812Z,57.30
2023-05-10T11:37:44.382Z,57.40
2023-05-10T11:40:29.686Z,55.40
2023-05-10T11:43:15.174Z,53.30
2023-05-10T11:46:01.210Z,49.50
2023-05-10T11:48:47.811Z,50.80
2023-05-10T11:51:36.694Z,48.40
2023-05-10T11:54:22.256Z,47.70
2023-05-10T11:57:07.755Z,44.80
2023-05-10T11:59:57.763Z,44.20
2023-05-10T12:02:43.767Z,45.00
2023-05-10T12:05:32.332Z,43.50
2023-05-10T12:08:23.683Z,40.70
2023-05-10T12:11:11.488Z,40.80
2023-05-10T12:13:57.784Z,38.50
2023-05-10T12:16:44.641Z,38.70
2023-05-10T12:19:38.705Z,40.40
2023-05-10T12:22:24.358Z,39.10
2023-05-10T12:25:10.838Z,40.70
2023-05-10T12:27:58.701Z,36.80
2023-05-10T12:30:45.562Z,36.90
2023-05-10T12:33:40.147Z,40.40
2023-05-10T12:36:26.422Z,37.50
2023-05-10T12:39:12.733Z,37.00
2023-05-10T12:41:58.432Z,36.80
2023-05-10T12:44:43.737Z,38.30
2023-05-10T12:47:29.717Z,38.60
2023-05-10T12:50:15.961Z,38.40
2023-05-10T12:53:01.884Z,38.90
2023-05-10T12:55:47.113Z,37.60
2023-05-10T12:58:35.974Z,40.50
2023-05-10T13:01:21.854Z,38.00
2023-05-10T13:04:07.256Z,37.60
2023-05-10T13:06:53.145Z,39.00
2023-05-10T13:09:39.596Z,38.30
2023-05-10T13:12:25.218Z,40.70
2023-05-10T13:15:11.063Z,40.90
2023-05-10T13:17:56.667Z,44.50
2023-05-10T13:20:44.088Z,42.80
2023-05-10T13:23:29.723Z,45.20
2023-05-10T13:26:15.539Z,49.00
2023-05-10T13:29:01.077Z,51.30
2023-05-10T13:31:46.933Z,54.10
2023-05-10T13:34:33.033Z,57.50
2023-05-10T13:37:18.794Z,60.10
2023-05-10T13:40:07.344Z,60.00
2023-05-10T13:42:52.709Z,61.30
2023-05-10T13:45:38.204Z,59.90
2023-05-10T13:48:26.236Z,58.40
2023-05-10T13:51:11.776Z,56.60
2023-05-10T13:53:57.111Z,53.60
2023-05-10T13:56:43.629Z,50.00
2023-05-10T13:59:34.555Z,48.00
2023-05-10T14:02:19.926Z,45.40
2023-05-10T14:05:05.932Z,51.30
2023-05-10T14:07:51.933Z,46.30
2023-05-10T14:10:38.032Z,43.20
2023-05-10T14:13:24.195Z,40.10
2023-05-10T14:16:09.909Z,42.40
2023-05-10T14:18:55.167Z,36.80
2023-05-10T14:21:40.772Z,32.60
2023-05-10T14:24:26.303Z,31.90
2023-05-10T14:27:11.809Z,32.60
2023-05-10T14:29:57.537Z,32.30
2023-05-10T14:32:43.062Z,33.10
2023-05-10T14:35:29.252Z,29.00
2023-05-10T14:38:15.445Z,26.90
2023-05-10T14:41:00.868Z,30.70
2023-05-10T14:43:46.989Z,33.00
2023-05-10T14:46:32.444Z,34.40
2023-05-10T14:49:18.113Z,35.80
2023-05-10T14:52:04.218Z,37.00
2023-05-10T14:54:49.627Z,37.50
2023-05-10T14:57:35.277Z,38.50
2023-05-10T15:00:21.728Z,36.70
2023-05-10T15:03:07.672Z,40.90
2023-05-10T15:05:54.169Z,33.90
2023-05-10T15:08:39.660Z,34.00
2023-05-10T15:11:25.074Z,34.30
2023-05-10T15:14:10.931Z,34.00
2023-05-10T15:16:56.217Z,36.00
2023-05-10T15:19:41.749Z,36.40
2023-05-10T15:22:29.226Z,33.40
2023-05-10T15:25:15.522Z,33.20
2023-05-10T15:28:01.370Z,32.80
2023-05-10T15:30:46.842Z,32.80
2023-05-10T15:33:32.192Z,32.20
2023-05-10T15:36:19.017Z,33.00
2023-05-10T15:39:04.917Z,33.20
2023-05-10T15:41:50.509Z,32.00
2023-05-10T15:44:36.164Z,31.90
2023-05-10T15:47:21.751Z,30.50
2023-05-10T15:50:08.492Z,28.00
2023-05-10T15:52:54.124Z,27.50
2023-05-10T15:55:39.669Z,29.50
2023-05-10T15:58:24.951Z,28.60
2023-05-10T16:01:12.301Z,29.40
2023-05-10T16:03:58.067Z,29.50
2023-05-10T16:06:43.447Z,30.20
2023-05-10T16:09:28.870Z,29.90
2023-05-10T16:12:14.828Z,29.30
2023-05-10T16:15:00.158Z,29.80
2023-05-10T16:17:46.002Z,32.80
2023-05-10T16:20:32.996Z,30.40
2023-05-10T16:23:18.710Z,29.50
2023-05-10T16:26:04.288Z,29.80
2023-05-10T16:28:49.740Z,29.70
2023-05-10T16:31:35.616Z,30.00
2023-05-10T16:34:24.327Z,30.90
2023-05-10T16:37:09.923Z,28.40
2023-05-10T16:39:55.343Z,30.20
2023-05-10T16:42:40.978Z,29.90
2023-05-10T16:45:27.038Z,30.80
2023-05-10T16:48:12.272Z,32.70
2023-05-10T16:50:57.909Z,34.70
2023-05-10T16:53:43.383Z,35.80
2023-05-10T16:56:28.672Z,32.30
2023-05-10T16:59:14.242Z,31.70
2023-05-10T17:01:59.815Z,32.70
2023-05-10T17:04:45.380Z,33.00
2023-05-10T17:07:31.159Z,33.50
2023-05-10T17:10:16.979Z,34.80
2023-05-10T17:13:03.070Z,34.10
2023-05-10T17:15:48.688Z,34.80
2023-05-10T17:18:33.977Z,33.20
2023-05-10T17:21:19.629Z,34.60
2023-05-10T17:24:05.470Z,36.00
2023-05-10T17:26:50.743Z,35.60
2023-05-10T17:29:36.102Z,36.30
2023-05-10T17:32:21.729Z,37.90
2023-05-10T17:35:07.527Z,38.80
2023-05-10T17:37:53.360Z,39.60
2023-05-10T17:40:41.464Z,39.90
2023-05-10T17:43:27.076Z,39.30
2023-05-10T17:46:13.060Z,38.20
2023-05-10T17:48:58.586Z,38.10
2023-05-10T17:51:44.193Z,34.80
2023-05-10T17:54:29.373Z,33.60
2023-05-10T17:57:14.915Z,34.90
2023-05-10T18:00:02.266Z,35.20
2023-05-10T18:02:48.010Z,35.10
2023-05-10T18:05:38.068Z,34.60
2023-05-10T18:08:26.985Z,34.70
2023-05-10T18:11:12.373Z,36.70
2023-05-10T18:13:58.357Z,36.30
2023-05-10T18:16:46.702Z,35.50
2023-05-10T18:19:32.444Z,36.00
2023-05-10T18:22:18.094Z,36.90
2023-05-10T18:25:03.448Z,36.50
2023-05-10T18:27:49.095Z,37.60
2023-05-10T18:30:35.246Z,37.70
2023-05-10T18:33:20.778Z,38.70
2023-05-10T18:36:06.216Z,38.60
2023-05-10T18:38:51.670Z,39.70
2023-05-10T18:41:36.950Z,38.80
2023-05-10T18:44:25.955Z,39.80
2023-05-10T18:47:13.942Z,40.70
2023-05-10T18:50:01.716Z,42.50
2023-05-10T18:52:47.608Z,41.70
2023-05-10T18:55:33.328Z,42.00
2023-05-10T18:58:19.990Z,42.00
2023-05-10T19:01:05.689Z,43.00
2023-05-10T19:03:51.069Z,43.80
2023-05-10T19:06:36.868Z,44.00
2023-05-10T19:09:22.636Z,45.10
2023-05-10T19:12:08.915Z,45.60
2023-05-10T19:14:54.309Z,45.80
2023-05-10T19:17:40.486Z,45.90
2023-05-10T19:20:26.046Z,47.00
2023-05-10T19:23:11.921Z,47.90
2023-05-10T19:25:58.037Z,48.00
2023-05-10T19:28:43.353Z,47.70
2023-05-10T19:31:29.026Z,48.70
2023-05-10T19:34:14.267Z,49.00
2023-05-10T19:36:59.580Z,49.60
2023-05-10T19:39:45.288Z,49.10
2023-05-10T19:42:30.650Z,49.60
2023-05-10T19:45:16.909Z,50.00
2023-05-10T19:48:02.841Z,50.30
2023-05-10T19:50:48.328Z,50.10
2023-05-10T19:53:33.559Z,50.20
2023-05-10T19:56:18.868Z,51.00
2023-05-10T19:59:04.351Z,51.10
2023-05-10T20:01:49.517Z,51.80
2023-05-10T20:04:35.257Z,52.10
2023-05-10T20:07:20.611Z,52.40
2023-05-10T20:10:06.443Z,51.90
2023-05-10T20:12:52.932Z,52.80
2023-05-10T20:15:38.637Z,53.50
2023-05-10T20:18:24.527Z,54.40
2023-05-10T20:21:09.902Z,55.10
2023-05-10T20:23:55.162Z,55.50
2023-05-10T20:26:41.030Z,55.00
2023-05-10T20:29:26.757Z,54.90
2023-05-10T20:32:12.452Z,54.90
2023-05-10T20:34:58.309Z,55.30
2023-05-10T20:37:43.826Z,55.30
2023-05-10T20:40:29.450Z,55.80
2023-05-10T20:43:14.879Z,56.40
2023-05-10T20:46:05.431Z,56.30
2023-05-10T20:48:51.316Z,56.40
2023-05-10T20:51:36.950Z,55.50
2023-05-10T20:54:24.359Z,55.70
2023-05-10T20:57:12.765Z,56.30
2023-05-10T20:59:58.195Z,56.40
2023-05-10T21:02:46.035Z,57.30
2023-05-10T21:05:31.411Z,57.90
2023-05-10T21:08:16.678Z,57.80
2023-05-10T21:11:05.763Z,58.10
2023-05-10T21:13:51.506Z,57.80
2023-05-10T21:16:36.997Z,58.20
2023-05-10T21:19:22.496Z,58.40
2023-05-10T21:22:07.938Z,58.70
2023-05-10T21:24:53.170Z,59.10
2023-05-10T21:27:39.177Z,58.60
2023-05-10T21:30:25.038Z,58.90
2023-05-10T21:33:10.379Z,58.70
2023-05-10T21:35:55.808Z,60.00
2023-05-10T21:38:42.357Z,59.70
2023-05-10T21:41:28.436Z,59.60
2023-05-10T21:44:13.765Z,60.40
2023-05-10T21:46:58.978Z,59.40
2023-05-10T21:49:44.946Z,59.30
2023-05-10T21:52:30.227Z,59.40
2023-05-10T21:55:17.228Z,60.80
2023-05-10T21:58:02.742Z,61.90
2023-05-10T22:00:48.638Z,61.90
2023-05-10T22:03:34.308Z,62.00
2023-05-10T22:06:19.822Z,62.70
2023-05-10T22:09:05.173Z,61.50
2023-05-10T22:11:50.763Z,61.20
2023-05-10T22:14:36.120Z,61.90
2023-05-10T22:17:21.563Z,61.90
2023-05-10T22:20:08.061Z,61.50
2023-05-10T22:22:55.162Z,61.50
2023-05-10T22:25:40.820Z,61.20
2023-05-10T22:28:26.429Z,60.70
2023-05-10T22:31:12.666Z,61.00
2023-05-10T22:33:58.565Z,60.40
2023-05-10T22:36:44.580Z,60.30
2023-05-10T22:39:30.113Z,60.80
2023-05-10T22:42:16.653Z,60.40
2023-05-10T22:45:02.202Z,60.40
2023-05-10T22:47:47.603Z,61.00
2023-05-10T22:50:33.168Z,61.10
2023-05-10T22:53:18.539Z,60.70
2023-05-10T22:56:03.922Z,61.50
2023-05-10T22:58:50.330Z,61.30
2023-05-10T23:01:35.979Z,61.40
2023-05-10T23:04:21.454Z,62.80
2023-05-10T23:07:07.106Z,64.00
2023-05-10T23:09:52.486Z,64.40
2023-05-10T23:12:38.045Z,64.40
2023-05-10T23:15:23.925Z,64.00
2023-05-10T23:18:09.846Z,62.00
2023-05-10T23:20:55.637Z,62.80
2023-05-10T23:23:41.444Z,61.80
2023-05-10T23:26:27.280Z,61.20
2023-05-10T23:29:13.204Z,60.80
2023-05-10T23:31:58.579Z,62.80
2023-05-10T23:34:43.786Z,60.50
2023-05-10T23:37:30.869Z,62.30
2023-05-10T23:40:17.118Z,61.80
2023-05-10T23:43:03.101Z,63.10
2023-05-10T23:45:56.045Z,63.10
2023-05-10T23:48:41.548Z,63.40
2023-05-10T23:51:28.228Z,64.10
2023-05-10T23:54:13.490Z,63.70
2023-05-10T23:56:58.804Z,63.70
2023-05-10T23:59:44.739Z,64.80
